sensor_id;sensor_type;location;lat;lon;timestamp;P1;durP1;ratioP1;P2;durP2;ratioP2
12306;SDS011;6216;51.146;7.008;2022-10-18T00:00:50;6.23;;;2.83;;
12306;SDS011;6216;51.146;7.008;2022-10-18T00:03:18;6.20;;;3.20;;
12306;SDS011;6216;51.146;7.008;2022-10-18T00:05:46;3.93;;;3.03;;
12306;SDS011;6216;51.146;7.008;2022-10-18T00:08:15;2.80;;;2.60;;
12306;SDS011;6216;51.146;7.008;2022-10-18T00:10:44;3.93;;;3.20;;
12306;SDS011;6216;51.146;7.008;2022-10-18T00:13:13;3.27;;;2.97;;
12306;SDS011;6216;51.146;7.008;2022-10-18T00:15:46;4.20;;;2.90;;
12306;SDS011;6216;51.146;7.008;2022-10-18T00:18:15;3.20;;;2.90;;
12306;SDS011;6216;51.146;7.008;2022-10-18T00:20:43;2.83;;;2.63;;
12306;SDS011;6216;51.146;7.008;2022-10-18T00:23:11;3.20;;;2.90;;
12306;SDS011;6216;51.146;7.008;2022-10-18T00:25:39;3.57;;;2.70;;
12306;SDS011;6216;51.146;7.008;2022-10-18T00:28:07;4.17;;;2.80;;
12306;SDS011;6216;51.146;7.008;2022-10-18T00:30:36;4.23;;;2.70;;
12306;SDS011;6216;51.146;7.008;2022-10-18T00:33:04;3.33;;;2.40;;
12306;SDS011;6216;51.146;7.008;2022-10-18T00:35:33;2.83;;;2.50;;
12306;SDS011;6216;51.146;7.008;2022-10-18T00:38:01;4.27;;;2.80;;
12306;SDS011;6216;51.146;7.008;2022-10-18T00:40:28;3.00;;;2.80;;
12306;SDS011;6216;51.146;7.008;2022-10-18T00:42:56;3.37;;;2.73;;
12306;SDS011;6216;51.146;7.008;2022-10-18T00:45:24;2.87;;;2.20;;
12306;SDS011;6216;51.146;7.008;2022-10-18T00:47:55;2.67;;;2.10;;
12306;SDS011;6216;51.146;7.008;2022-10-18T00:50:26;3.47;;;2.57;;
12306;SDS011;6216;51.146;7.008;2022-10-18T00:52:59;3.00;;;2.70;;
12306;SDS011;6216;51.146;7.008;2022-10-18T00:55:30;4.27;;;2.57;;
12306;SDS011;6216;51.146;7.008;2022-10-18T00:57:59;4.13;;;2.50;;
12306;SDS011;6216;51.146;7.008;2022-10-18T01:00:27;2.30;;;2.10;;
12306;SDS011;6216;51.146;7.008;2022-10-18T01:02:57;4.17;;;2.70;;
12306;SDS011;6216;51.146;7.008;2022-10-18T01:05:25;3.60;;;2.40;;
12306;SDS011;6216;51.146;7.008;2022-10-18T01:10:50;2.57;;;2.37;;
12306;SDS011;6216;51.146;7.008;2022-10-18T01:13:25;3.43;;;2.87;;
12306;SDS011;6216;51.146;7.008;2022-10-18T01:16:02;3.40;;;2.80;;
12306;SDS011;6216;51.146;7.008;2022-10-18T01:18:43;4.80;;;2.80;;
12306;SDS011;6216;51.146;7.008;2022-10-18T01:21:17;3.57;;;3.27;;
12306;SDS011;6216;51.146;7.008;2022-10-18T01:23:59;6.53;;;3.80;;
12306;SDS011;6216;51.146;7.008;2022-10-18T01:26:52;5.93;;;5.43;;
12306;SDS011;6216;51.146;7.008;2022-10-18T01:29:47;8.07;;;6.43;;
12306;SDS011;6216;51.146;7.008;2022-10-18T01:32:29;5.93;;;5.40;;
12306;SDS011;6216;51.146;7.008;2022-10-18T01:35:04;4.67;;;4.20;;
12306;SDS011;6216;51.146;7.008;2022-10-18T01:37:38;4.83;;;4.40;;
12306;SDS011;6216;51.146;7.008;2022-10-18T01:40:08;3.63;;;3.33;;
12306;SDS011;6216;51.146;7.008;2022-10-18T01:42:38;13.13;;;3.87;;
12306;SDS011;6216;51.146;7.008;2022-10-18T01:45:07;6.57;;;3.60;;
12306;SDS011;6216;51.146;7.008;2022-10-18T01:47:37;3.70;;;2.70;;
12306;SDS011;6216;51.146;7.008;2022-10-18T01:50:06;4.00;;;3.40;;
12306;SDS011;6216;51.146;7.008;2022-10-18T01:52:35;4.47;;;2.80;;
12306;SDS011;6216;51.146;7.008;2022-10-18T01:55:13;3.63;;;3.10;;
12306;SDS011;6216;51.146;7.008;2022-10-18T01:57:41;3.33;;;2.50;;
12306;SDS011;6216;51.146;7.008;2022-10-18T02:00:21;2.70;;;2.50;;
12306;SDS011;6216;51.146;7.008;2022-10-18T02:02:56;2.70;;;2.50;;
12306;SDS011;6216;51.146;7.008;2022-10-18T02:05:32;6.63;;;3.07;;
12306;SDS011;6216;51.146;7.008;2022-10-18T02:08:06;2.80;;;2.60;;
12306;SDS011;6216;51.146;7.008;2022-10-18T02:10:49;3.77;;;2.63;;
12306;SDS011;6216;51.146;7.008;2022-10-18T02:13:20;4.13;;;2.47;;
12306;SDS011;6216;51.146;7.008;2022-10-18T02:15:52;3.03;;;2.80;;
12306;SDS011;6216;51.146;7.008;2022-10-18T02:18:26;2.40;;;2.20;;
12306;SDS011;6216;51.146;7.008;2022-10-18T02:21:00;3.37;;;3.07;;
12306;SDS011;6216;51.146;7.008;2022-10-18T02:23:30;4.00;;;2.80;;
12306;SDS011;6216;51.146;7.008;2022-10-18T02:25:59;3.73;;;3.10;;
12306;SDS011;6216;51.146;7.008;2022-10-18T02:28:27;4.03;;;2.83;;
12306;SDS011;6216;51.146;7.008;2022-10-18T02:30:57;3.37;;;2.60;;
12306;SDS011;6216;51.146;7.008;2022-10-18T02:33:33;6.77;;;3.10;;
12306;SDS011;6216;51.146;7.008;2022-10-18T02:36:09;6.83;;;2.80;;
12306;SDS011;6216;51.146;7.008;2022-10-18T02:38:39;3.27;;;2.57;;
12306;SDS011;6216;51.146;7.008;2022-10-18T02:41:08;6.30;;;2.90;;
12306;SDS011;6216;51.146;7.008;2022-10-18T02:43:36;4.67;;;2.60;;
12306;SDS011;6216;51.146;7.008;2022-10-18T02:46:04;2.87;;;2.67;;
12306;SDS011;6216;51.146;7.008;2022-10-18T02:48:33;5.00;;;2.60;;
12306;SDS011;6216;51.146;7.008;2022-10-18T02:51:01;5.33;;;3.00;;
12306;SDS011;6216;51.146;7.008;2022-10-18T02:53:29;3.00;;;2.70;;
12306;SDS011;6216;51.146;7.008;2022-10-18T02:55:57;3.87;;;2.80;;
12306;SDS011;6216;51.146;7.008;2022-10-18T02:58:25;3.27;;;2.70;;
12306;SDS011;6216;51.146;7.008;2022-10-18T03:00:52;2.97;;;2.67;;
12306;SDS011;6216;51.146;7.008;2022-10-18T03:03:20;3.27;;;2.97;;
12306;SDS011;6216;51.146;7.008;2022-10-18T03:05:50;2.63;;;2.43;;
12306;SDS011;6216;51.146;7.008;2022-10-18T03:08:18;4.47;;;2.60;;
12306;SDS011;6216;51.146;7.008;2022-10-18T03:10:47;3.10;;;2.80;;
12306;SDS011;6216;51.146;7.008;2022-10-18T03:13:15;4.80;;;2.97;;
12306;SDS011;6216;51.146;7.008;2022-10-18T03:15:43;2.63;;;2.43;;
12306;SDS011;6216;51.146;7.008;2022-10-18T03:18:12;5.27;;;3.00;;
12306;SDS011;6216;51.146;7.008;2022-10-18T03:20:40;3.07;;;2.70;;
12306;SDS011;6216;51.146;7.008;2022-10-18T03:23:10;2.67;;;2.47;;
12306;SDS011;6216;51.146;7.008;2022-10-18T03:25:37;3.40;;;2.77;;
12306;SDS011;6216;51.146;7.008;2022-10-18T03:28:10;3.53;;;2.70;;
12306;SDS011;6216;51.146;7.008;2022-10-18T03:30:38;3.00;;;2.70;;
12306;SDS011;6216;51.146;7.008;2022-10-18T03:33:06;3.37;;;2.93;;
12306;SDS011;6216;51.146;7.008;2022-10-18T03:35:34;3.30;;;3.00;;
12306;SDS011;6216;51.146;7.008;2022-10-18T03:38:02;3.27;;;3.03;;
12306;SDS011;6216;51.146;7.008;2022-10-18T03:40:31;4.00;;;2.73;;
12306;SDS011;6216;51.146;7.008;2022-10-18T03:42:59;3.83;;;2.90;;
12306;SDS011;6216;51.146;7.008;2022-10-18T03:45:27;4.43;;;2.77;;
12306;SDS011;6216;51.146;7.008;2022-10-18T03:47:56;3.57;;;2.87;;
12306;SDS011;6216;51.146;7.008;2022-10-18T03:50:24;3.53;;;2.63;;
12306;SDS011;6216;51.146;7.008;2022-10-18T03:52:52;3.63;;;3.20;;
12306;SDS011;6216;51.146;7.008;2022-10-18T03:55:20;3.93;;;3.20;;
12306;SDS011;6216;51.146;7.008;2022-10-18T03:57:50;3.73;;;2.83;;
12306;SDS011;6216;51.146;7.008;2022-10-18T04:00:18;4.10;;;3.33;;
12306;SDS011;6216;51.146;7.008;2022-10-18T04:02:46;3.57;;;3.27;;
12306;SDS011;6216;51.146;7.008;2022-10-18T04:05:20;6.70;;;3.80;;
12306;SDS011;6216;51.146;7.008;2022-10-18T04:07:49;4.23;;;3.40;;
12306;SDS011;6216;51.146;7.008;2022-10-18T04:10:17;3.87;;;3.13;;
12306;SDS011;6216;51.146;7.008;2022-10-18T04:12:45;7.23;;;3.20;;
12306;SDS011;6216;51.146;7.008;2022-10-18T04:15:14;3.77;;;3.20;;
12306;SDS011;6216;51.146;7.008;2022-10-18T04:17:42;3.97;;;3.47;;
12306;SDS011;6216;51.146;7.008;2022-10-18T04:20:10;3.30;;;3.00;;
12306;SDS011;6216;51.146;7.008;2022-10-18T04:22:39;6.10;;;3.50;;
12306;SDS011;6216;51.146;7.008;2022-10-18T04:25:07;3.50;;;3.20;;
12306;SDS011;6216;51.146;7.008;2022-10-18T04:27:36;3.70;;;3.20;;
12306;SDS011;6216;51.146;7.008;2022-10-18T04:30:04;3.47;;;2.73;;
12306;SDS011;6216;51.146;7.008;2022-10-18T04:32:34;3.37;;;3.00;;
12306;SDS011;6216;51.146;7.008;2022-10-18T04:35:02;4.97;;;3.10;;
12306;SDS011;6216;51.146;7.008;2022-10-18T04:37:32;3.83;;;3.43;;
12306;SDS011;6216;51.146;7.008;2022-10-18T04:40:01;4.07;;;3.47;;
12306;SDS011;6216;51.146;7.008;2022-10-18T04:42:29;3.90;;;3.53;;
12306;SDS011;6216;51.146;7.008;2022-10-18T04:44:57;5.10;;;3.93;;
12306;SDS011;6216;51.146;7.008;2022-10-18T04:47:25;3.80;;;3.60;;
12306;SDS011;6216;51.146;7.008;2022-10-18T04:49:54;3.90;;;3.60;;
12306;SDS011;6216;51.146;7.008;2022-10-18T04:52:22;3.80;;;3.50;;
12306;SDS011;6216;51.146;7.008;2022-10-18T04:54:50;3.70;;;3.40;;
12306;SDS011;6216;51.146;7.008;2022-10-18T04:57:18;6.07;;;3.90;;
12306;SDS011;6216;51.146;7.008;2022-10-18T04:59:46;4.20;;;3.80;;
12306;SDS011;6216;51.146;7.008;2022-10-18T05:02:13;5.53;;;4.17;;
12306;SDS011;6216;51.146;7.008;2022-10-18T05:04:41;4.47;;;3.70;;
12306;SDS011;6216;51.146;7.008;2022-10-18T05:07:11;4.27;;;3.97;;
12306;SDS011;6216;51.146;7.008;2022-10-18T05:09:39;5.20;;;4.73;;
12306;SDS011;6216;51.146;7.008;2022-10-18T05:12:07;5.47;;;4.97;;
12306;SDS011;6216;51.146;7.008;2022-10-18T05:14:35;4.37;;;3.97;;
12306;SDS011;6216;51.146;7.008;2022-10-18T05:17:02;4.70;;;4.00;;
12306;SDS011;6216;51.146;7.008;2022-10-18T05:19:30;4.43;;;4.03;;
12306;SDS011;6216;51.146;7.008;2022-10-18T05:21:58;5.20;;;4.70;;
12306;SDS011;6216;51.146;7.008;2022-10-18T05:24:28;5.90;;;4.50;;
12306;SDS011;6216;51.146;7.008;2022-10-18T05:26:55;5.67;;;4.57;;
12306;SDS011;6216;51.146;7.008;2022-10-18T05:29:23;5.57;;;4.50;;
12306;SDS011;6216;51.146;7.008;2022-10-18T05:31:52;7.43;;;5.53;;
12306;SDS011;6216;51.146;7.008;2022-10-18T05:34:20;5.10;;;4.60;;
12306;SDS011;6216;51.146;7.008;2022-10-18T05:36:49;4.93;;;4.43;;
12306;SDS011;6216;51.146;7.008;2022-10-18T05:39:17;6.10;;;5.23;;
12306;SDS011;6216;51.146;7.008;2022-10-18T05:41:46;5.17;;;4.70;;
12306;SDS011;6216;51.146;7.008;2022-10-18T05:46:43;5.97;;;5.17;;
12306;SDS011;6216;51.146;7.008;2022-10-18T05:49:11;6.20;;;5.10;;
12306;SDS011;6216;51.146;7.008;2022-10-18T05:51:46;5.80;;;5.30;;
12306;SDS011;6216;51.146;7.008;2022-10-18T05:54:16;7.37;;;5.53;;
12306;SDS011;6216;51.146;7.008;2022-10-18T05:56:47;7.10;;;5.83;;
12306;SDS011;6216;51.146;7.008;2022-10-18T05:59:15;6.33;;;5.63;;
12306;SDS011;6216;51.146;7.008;2022-10-18T06:01:58;6.83;;;5.20;;
12306;SDS011;6216;51.146;7.008;2022-10-18T06:04:40;5.40;;;4.90;;
12306;SDS011;6216;51.146;7.008;2022-10-18T06:07:08;5.60;;;5.10;;
12306;SDS011;6216;51.146;7.008;2022-10-18T06:09:36;5.37;;;4.70;;
12306;SDS011;6216;51.146;7.008;2022-10-18T06:12:08;6.47;;;5.77;;
12306;SDS011;6216;51.146;7.008;2022-10-18T06:14:36;7.23;;;6.07;;
12306;SDS011;6216;51.146;7.008;2022-10-18T06:17:04;7.20;;;6.50;;
12306;SDS011;6216;51.146;7.008;2022-10-18T06:19:32;7.97;;;6.33;;
12306;SDS011;6216;51.146;7.008;2022-10-18T06:22:00;5.67;;;5.17;;
12306;SDS011;6216;51.146;7.008;2022-10-18T06:24:27;6.33;;;5.80;;
12306;SDS011;6216;51.146;7.008;2022-10-18T06:26:55;6.43;;;5.83;;
12306;SDS011;6216;51.146;7.008;2022-10-18T06:29:25;6.70;;;6.10;;
12306;SDS011;6216;51.146;7.008;2022-10-18T06:31:53;8.00;;;6.70;;
12306;SDS011;6216;51.146;7.008;2022-10-18T06:34:21;6.50;;;5.90;;
12306;SDS011;6216;51.146;7.008;2022-10-18T06:36:48;6.10;;;5.47;;
12306;SDS011;6216;51.146;7.008;2022-10-18T06:39:21;7.50;;;5.90;;
12306;SDS011;6216;51.146;7.008;2022-10-18T06:41:49;6.70;;;6.07;;
12306;SDS011;6216;51.146;7.008;2022-10-18T06:44:17;5.63;;;5.13;;
12306;SDS011;6216;51.146;7.008;2022-10-18T06:46:47;6.00;;;5.40;;
12306;SDS011;6216;51.146;7.008;2022-10-18T06:49:16;6.73;;;5.73;;
12306;SDS011;6216;51.146;7.008;2022-10-18T06:51:44;5.73;;;5.07;;
12306;SDS011;6216;51.146;7.008;2022-10-18T06:54:12;6.17;;;5.67;;
12306;SDS011;6216;51.146;7.008;2022-10-18T06:56:44;7.03;;;5.80;;
12306;SDS011;6216;51.146;7.008;2022-10-18T06:59:12;7.50;;;6.80;;
12306;SDS011;6216;51.146;7.008;2022-10-18T07:01:40;6.30;;;5.70;;
12306;SDS011;6216;51.146;7.008;2022-10-18T07:04:10;10.87;;;6.50;;
12306;SDS011;6216;51.146;7.008;2022-10-18T07:06:39;8.87;;;6.73;;
12306;SDS011;6216;51.146;7.008;2022-10-18T07:09:06;7.00;;;6.40;;
12306;SDS011;6216;51.146;7.008;2022-10-18T07:11:34;6.70;;;6.10;;
12306;SDS011;6216;51.146;7.008;2022-10-18T07:14:02;7.23;;;6.10;;
12306;SDS011;6216;51.146;7.008;2022-10-18T07:16:31;7.00;;;6.30;;
12306;SDS011;6216;51.146;7.008;2022-10-18T07:18:59;7.33;;;6.60;;
12306;SDS011;6216;51.146;7.008;2022-10-18T07:21:29;6.83;;;6.13;;
12306;SDS011;6216;51.146;7.008;2022-10-18T07:23:57;7.73;;;6.20;;
12306;SDS011;6216;51.146;7.008;2022-10-18T07:26:25;6.67;;;5.97;;
12306;SDS011;6216;51.146;7.008;2022-10-18T07:28:55;6.43;;;5.83;;
12306;SDS011;6216;51.146;7.008;2022-10-18T07:31:26;5.80;;;5.17;;
12306;SDS011;6216;51.146;7.008;2022-10-18T07:33:55;8.40;;;5.97;;
12306;SDS011;6216;51.146;7.008;2022-10-18T07:36:23;9.07;;;5.57;;
12306;SDS011;6216;51.146;7.008;2022-10-18T07:38:53;6.70;;;6.00;;
12306;SDS011;6216;51.146;7.008;2022-10-18T07:41:21;6.67;;;5.83;;
12306;SDS011;6216;51.146;7.008;2022-10-18T07:43:49;6.10;;;5.53;;
12306;SDS011;6216;51.146;7.008;2022-10-18T07:46:18;6.50;;;5.90;;
12306;SDS011;6216;51.146;7.008;2022-10-18T07:48:48;7.53;;;5.70;;
12306;SDS011;6216;51.146;7.008;2022-10-18T07:51:16;9.10;;;6.30;;
12306;SDS011;6216;51.146;7.008;2022-10-18T07:53:45;9.00;;;6.67;;
12306;SDS011;6216;51.146;7.008;2022-10-18T07:56:15;8.53;;;7.63;;
12306;SDS011;6216;51.146;7.008;2022-10-18T07:58:47;10.63;;;7.33;;
12306;SDS011;6216;51.146;7.008;2022-10-18T08:01:17;14.63;;;8.00;;
12306;SDS011;6216;51.146;7.008;2022-10-18T08:03:46;18.83;;;11.23;;
12306;SDS011;6216;51.146;7.008;2022-10-18T08:06:15;15.37;;;10.23;;
12306;SDS011;6216;51.146;7.008;2022-10-18T08:08:44;13.30;;;9.07;;
12306;SDS011;6216;51.146;7.008;2022-10-18T08:11:13;19.53;;;12.47;;
12306;SDS011;6216;51.146;7.008;2022-10-18T08:13:45;19.37;;;12.60;;
12306;SDS011;6216;51.146;7.008;2022-10-18T08:16:13;25.63;;;14.97;;
12306;SDS011;6216;51.146;7.008;2022-10-18T08:18:44;24.23;;;15.47;;
12306;SDS011;6216;51.146;7.008;2022-10-18T08:21:12;27.77;;;16.67;;
12306;SDS011;6216;51.146;7.008;2022-10-18T08:23:44;28.47;;;17.83;;
12306;SDS011;6216;51.146;7.008;2022-10-18T08:26:13;28.00;;;16.63;;
12306;SDS011;6216;51.146;7.008;2022-10-18T08:28:44;27.70;;;15.83;;
12306;SDS011;6216;51.146;7.008;2022-10-18T08:31:23;33.47;;;16.70;;
12306;SDS011;6216;51.146;7.008;2022-10-18T08:33:53;36.40;;;17.33;;
12306;SDS011;6216;51.146;7.008;2022-10-18T08:36:23;30.77;;;16.07;;
12306;SDS011;6216;51.146;7.008;2022-10-18T08:38:51;41.53;;;19.50;;
12306;SDS011;6216;51.146;7.008;2022-10-18T08:41:25;48.43;;;22.03;;
12306;SDS011;6216;51.146;7.008;2022-10-18T08:44:04;51.57;;;23.53;;
12306;SDS011;6216;51.146;7.008;2022-10-18T08:46:40;48.43;;;22.83;;
12306;SDS011;6216;51.146;7.008;2022-10-18T08:49:14;47.40;;;23.77;;
12306;SDS011;6216;51.146;7.008;2022-10-18T08:51:48;48.77;;;23.80;;
12306;SDS011;6216;51.146;7.008;2022-10-18T08:54:20;48.87;;;23.13;;
12306;SDS011;6216;51.146;7.008;2022-10-18T08:56:55;53.73;;;23.07;;
12306;SDS011;6216;51.146;7.008;2022-10-18T08:59:27;52.03;;;22.63;;
12306;SDS011;6216;51.146;7.008;2022-10-18T09:02:02;49.23;;;23.10;;
12306;SDS011;6216;51.146;7.008;2022-10-18T09:04:42;43.70;;;22.20;;
12306;SDS011;6216;51.146;7.008;2022-10-18T09:10:18;42.00;;;19.87;;
12306;SDS011;6216;51.146;7.008;2022-10-18T09:12:54;38.60;;;21.27;;
12306;SDS011;6216;51.146;7.008;2022-10-18T09:15:37;43.43;;;22.00;;
12306;SDS011;6216;51.146;7.008;2022-10-18T09:18:12;50.17;;;24.10;;
12306;SDS011;6216;51.146;7.008;2022-10-18T09:21:04;39.00;;;22.10;;
12306;SDS011;6216;51.146;7.008;2022-10-18T09:23:40;53.93;;;23.83;;
12306;SDS011;6216;51.146;7.008;2022-10-18T09:26:14;24.87;;;14.03;;
12306;SDS011;6216;51.146;7.008;2022-10-18T09:28:52;36.23;;;20.67;;
12306;SDS011;6216;51.146;7.008;2022-10-18T09:31:35;43.20;;;22.53;;
12306;SDS011;6216;51.146;7.008;2022-10-18T09:34:11;44.80;;;23.73;;
12306;SDS011;6216;51.146;7.008;2022-10-18T09:36:45;40.90;;;23.23;;
12306;SDS011;6216;51.146;7.008;2022-10-18T09:39:17;44.03;;;25.43;;
12306;SDS011;6216;51.146;7.008;2022-10-18T09:41:48;52.27;;;27.07;;
12306;SDS011;6216;51.146;7.008;2022-10-18T09:44:22;46.57;;;27.27;;
12306;SDS011;6216;51.146;7.008;2022-10-18T09:46:52;53.60;;;27.90;;
12306;SDS011;6216;51.146;7.008;2022-10-18T09:49:26;37.50;;;23.43;;
12306;SDS011;6216;51.146;7.008;2022-10-18T09:51:56;46.33;;;25.53;;
12306;SDS011;6216;51.146;7.008;2022-10-18T09:54:29;46.60;;;26.87;;
12306;SDS011;6216;51.146;7.008;2022-10-18T09:57:01;45.47;;;26.63;;
12306;SDS011;6216;51.146;7.008;2022-10-18T09:59:35;45.07;;;27.20;;
12306;SDS011;6216;51.146;7.008;2022-10-18T10:02:07;56.10;;;30.93;;
12306;SDS011;6216;51.146;7.008;2022-10-18T10:04:38;51.10;;;30.70;;
12306;SDS011;6216;51.146;7.008;2022-10-18T10:07:07;52.10;;;29.10;;
12306;SDS011;6216;51.146;7.008;2022-10-18T10:09:39;49.50;;;28.67;;
12306;SDS011;6216;51.146;7.008;2022-10-18T10:12:27;45.60;;;26.67;;
12306;SDS011;6216;51.146;7.008;2022-10-18T10:15:08;44.77;;;26.90;;
12306;SDS011;6216;51.146;7.008;2022-10-18T10:17:42;43.53;;;25.83;;
12306;SDS011;6216;51.146;7.008;2022-10-18T10:20:14;40.77;;;24.37;;
12306;SDS011;6216;51.146;7.008;2022-10-18T10:22:46;39.10;;;24.47;;
12306;SDS011;6216;51.146;7.008;2022-10-18T10:25:19;34.30;;;22.23;;
12306;SDS011;6216;51.146;7.008;2022-10-18T10:27:51;37.00;;;23.70;;
12306;SDS011;6216;51.146;7.008;2022-10-18T10:30:22;37.40;;;24.83;;
12306;SDS011;6216;51.146;7.008;2022-10-18T10:32:52;38.80;;;26.43;;
12306;SDS011;6216;51.146;7.008;2022-10-18T10:35:22;35.73;;;23.17;;
12306;SDS011;6216;51.146;7.008;2022-10-18T10:38:21;39.77;;;24.10;;
12306;SDS011;6216;51.146;7.008;2022-10-18T10:40:50;34.93;;;23.73;;
12306;SDS011;6216;51.146;7.008;2022-10-18T10:43:19;40.27;;;25.70;;
12306;SDS011;6216;51.146;7.008;2022-10-18T10:46:05;36.17;;;25.37;;
12306;SDS011;6216;51.146;7.008;2022-10-18T10:48:38;31.83;;;23.67;;
12306;SDS011;6216;51.146;7.008;2022-10-18T10:51:16;32.53;;;23.50;;
12306;SDS011;6216;51.146;7.008;2022-10-18T10:53:58;31.77;;;23.20;;
12306;SDS011;6216;51.146;7.008;2022-10-18T10:56:28;33.73;;;23.17;;
12306;SDS011;6216;51.146;7.008;2022-10-18T10:59:00;31.77;;;25.20;;
12306;SDS011;6216;51.146;7.008;2022-10-18T11:01:36;33.37;;;24.13;;
12306;SDS011;6216;51.146;7.008;2022-10-18T11:06:53;29.10;;;22.03;;
12306;SDS011;6216;51.146;7.008;2022-10-18T11:09:38;30.70;;;24.63;;
12306;SDS011;6216;51.146;7.008;2022-10-18T11:12:25;28.23;;;24.30;;
12306;SDS011;6216;51.146;7.008;2022-10-18T11:15:01;29.80;;;24.27;;
12306;SDS011;6216;51.146;7.008;2022-10-18T11:17:42;31.30;;;25.40;;
12306;SDS011;6216;51.146;7.008;2022-10-18T11:20:25;31.53;;;24.77;;
12306;SDS011;6216;51.146;7.008;2022-10-18T11:23:01;30.10;;;26.50;;
12306;SDS011;6216;51.146;7.008;2022-10-18T11:28:45;27.57;;;24.00;;
12306;SDS011;6216;51.146;7.008;2022-10-18T11:31:36;26.47;;;23.57;;
12306;SDS011;6216;51.146;7.008;2022-10-18T11:34:18;22.17;;;19.87;;
12306;SDS011;6216;51.146;7.008;2022-10-18T11:37:01;24.90;;;21.80;;
12306;SDS011;6216;51.146;7.008;2022-10-18T11:40:00;22.07;;;19.57;;
12306;SDS011;6216;51.146;7.008;2022-10-18T11:42:40;24.93;;;21.97;;
12306;SDS011;6216;51.146;7.008;2022-10-18T11:45:23;33.50;;;23.23;;
12306;SDS011;6216;51.146;7.008;2022-10-18T11:48:00;27.17;;;20.93;;
12306;SDS011;6216;51.146;7.008;2022-10-18T11:50:47;22.97;;;20.53;;
12306;SDS011;6216;51.146;7.008;2022-10-18T11:53:22;24.73;;;21.80;;
12306;SDS011;6216;51.146;7.008;2022-10-18T11:55:59;22.33;;;20.07;;
12306;SDS011;6216;51.146;7.008;2022-10-18T11:58:43;22.17;;;19.97;;
12306;SDS011;6216;51.146;7.008;2022-10-18T12:01:25;22.40;;;20.00;;
12306;SDS011;6216;51.146;7.008;2022-10-18T12:04:00;20.57;;;18.57;;
12306;SDS011;6216;51.146;7.008;2022-10-18T12:07:00;22.17;;;19.70;;
12306;SDS011;6216;51.146;7.008;2022-10-18T12:09:57;24.13;;;20.93;;
12306;SDS011;6216;51.146;7.008;2022-10-18T12:13:11;26.57;;;23.63;;
12306;SDS011;6216;51.146;7.008;2022-10-18T12:15:56;24.00;;;21.17;;
12306;SDS011;6216;51.146;7.008;2022-10-18T12:18:25;30.43;;;24.97;;
12306;SDS011;6216;51.146;7.008;2022-10-18T12:20:55;28.93;;;25.80;;
12306;SDS011;6216;51.146;7.008;2022-10-18T12:23:32;39.17;;;28.20;;
12306;SDS011;6216;51.146;7.008;2022-10-18T12:26:05;38.30;;;29.47;;
12306;SDS011;6216;51.146;7.008;2022-10-18T12:28:38;42.23;;;31.40;;
12306;SDS011;6216;51.146;7.008;2022-10-18T12:31:16;33.97;;;28.87;;
12306;SDS011;6216;51.146;7.008;2022-10-18T12:33:49;31.10;;;26.23;;
12306;SDS011;6216;51.146;7.008;2022-10-18T12:36:29;35.33;;;29.10;;
12306;SDS011;6216;51.146;7.008;2022-10-18T12:39:14;35.27;;;28.50;;
12306;SDS011;6216;51.146;7.008;2022-10-18T12:42:03;41.43;;;30.30;;
12306;SDS011;6216;51.146;7.008;2022-10-18T12:44:34;37.33;;;30.37;;
12306;SDS011;6216;51.146;7.008;2022-10-18T12:47:03;32.77;;;27.97;;
12306;SDS011;6216;51.146;7.008;2022-10-18T12:49:32;32.10;;;25.77;;
12306;SDS011;6216;51.146;7.008;2022-10-18T12:52:07;30.30;;;24.37;;
12306;SDS011;6216;51.146;7.008;2022-10-18T12:55:00;27.00;;;22.10;;
12306;SDS011;6216;51.146;7.008;2022-10-18T13:03:37;20.43;;;18.27;;
12306;SDS011;6216;51.146;7.008;2022-10-18T13:06:18;22.47;;;19.40;;
12306;SDS011;6216;51.146;7.008;2022-10-18T13:08:46;20.87;;;18.03;;
12306;SDS011;6216;51.146;7.008;2022-10-18T13:14:36;20.13;;;16.23;;
12306;SDS011;6216;51.146;7.008;2022-10-18T13:17:46;17.17;;;14.10;;
12306;SDS011;6216;51.146;7.008;2022-10-18T13:20:39;16.80;;;13.40;;
12306;SDS011;6216;51.146;7.008;2022-10-18T13:23:28;14.33;;;11.07;;
12306;SDS011;6216;51.146;7.008;2022-10-18T13:26:21;10.80;;;9.60;;
12306;SDS011;6216;51.146;7.008;2022-10-18T13:29:03;12.03;;;10.40;;
12306;SDS011;6216;51.146;7.008;2022-10-18T13:31:48;10.47;;;9.40;;
12306;SDS011;6216;51.146;7.008;2022-10-18T13:34:29;11.77;;;9.40;;
12306;SDS011;6216;51.146;7.008;2022-10-18T13:37:17;11.20;;;9.77;;
12306;SDS011;6216;51.146;7.008;2022-10-18T13:40:20;10.87;;;9.40;;
12306;SDS011;6216;51.146;7.008;2022-10-18T13:42:51;11.57;;;8.63;;
12306;SDS011;6216;51.146;7.008;2022-10-18T13:45:43;9.23;;;8.30;;
12306;SDS011;6216;51.146;7.008;2022-10-18T13:51:31;10.23;;;7.10;;
12306;SDS011;6216;51.146;7.008;2022-10-18T13:54:13;8.03;;;6.00;;
12306;SDS011;6216;51.146;7.008;2022-10-18T13:57:03;8.30;;;6.13;;
12306;SDS011;6216;51.146;7.008;2022-10-18T13:59:57;7.93;;;5.37;;
12306;SDS011;6216;51.146;7.008;2022-10-18T14:02:48;9.83;;;5.60;;
12306;SDS011;6216;51.146;7.008;2022-10-18T14:05:46;6.63;;;5.03;;
12306;SDS011;6216;51.146;7.008;2022-10-18T14:08:18;6.33;;;4.60;;
12306;SDS011;6216;51.146;7.008;2022-10-18T14:10:55;8.47;;;5.30;;
12306;SDS011;6216;51.146;7.008;2022-10-18T14:13:30;6.67;;;4.70;;
12306;SDS011;6216;51.146;7.008;2022-10-18T14:16:06;7.27;;;4.57;;
12306;SDS011;6216;51.146;7.008;2022-10-18T14:18:47;6.20;;;4.50;;
12306;SDS011;6216;51.146;7.008;2022-10-18T14:21:23;6.40;;;4.67;;
12306;SDS011;6216;51.146;7.008;2022-10-18T14:23:59;10.17;;;5.20;;
12306;SDS011;6216;51.146;7.008;2022-10-18T14:26:28;6.07;;;4.23;;
12306;SDS011;6216;51.146;7.008;2022-10-18T14:29:01;8.37;;;4.63;;
12306;SDS011;6216;51.146;7.008;2022-10-18T14:31:31;7.50;;;4.93;;
12306;SDS011;6216;51.146;7.008;2022-10-18T14:34:00;6.57;;;4.50;;
12306;SDS011;6216;51.146;7.008;2022-10-18T14:36:30;8.40;;;4.50;;
12306;SDS011;6216;51.146;7.008;2022-10-18T14:39:04;8.23;;;6.13;;
12306;SDS011;6216;51.146;7.008;2022-10-18T14:41:34;8.00;;;4.90;;
12306;SDS011;6216;51.146;7.008;2022-10-18T14:44:11;4.63;;;3.83;;
12306;SDS011;6216;51.146;7.008;2022-10-18T14:46:46;8.80;;;4.33;;
12306;SDS011;6216;51.146;7.008;2022-10-18T14:49:18;8.20;;;4.53;;
12306;SDS011;6216;51.146;7.008;2022-10-18T14:51:47;10.10;;;4.30;;
12306;SDS011;6216;51.146;7.008;2022-10-18T14:54:18;7.00;;;3.90;;
12306;SDS011;6216;51.146;7.008;2022-10-18T14:56:56;6.10;;;4.17;;
12306;SDS011;6216;51.146;7.008;2022-10-18T14:59:25;8.90;;;4.40;;
12306;SDS011;6216;51.146;7.008;2022-10-18T15:01:56;10.20;;;4.00;;
12306;SDS011;6216;51.146;7.008;2022-10-18T15:04:28;6.83;;;3.83;;
12306;SDS011;6216;51.146;7.008;2022-10-18T15:06:58;8.87;;;4.37;;
12306;SDS011;6216;51.146;7.008;2022-10-18T15:09:28;13.87;;;4.40;;
12306;SDS011;6216;51.146;7.008;2022-10-18T15:11:57;8.00;;;4.47;;
12306;SDS011;6216;51.146;7.008;2022-10-18T15:14:27;9.27;;;4.70;;
12306;SDS011;6216;51.146;7.008;2022-10-18T15:16:58;8.03;;;4.33;;
12306;SDS011;6216;51.146;7.008;2022-10-18T15:19:31;9.47;;;4.40;;
12306;SDS011;6216;51.146;7.008;2022-10-18T15:22:01;10.03;;;4.57;;
12306;SDS011;6216;51.146;7.008;2022-10-18T15:27:41;9.30;;;4.80;;
12306;SDS011;6216;51.146;7.008;2022-10-18T15:30:14;7.13;;;4.60;;
12306;SDS011;6216;51.146;7.008;2022-10-18T15:32:46;9.43;;;4.60;;
12306;SDS011;6216;51.146;7.008;2022-10-18T15:35:18;11.90;;;5.07;;
12306;SDS011;6216;51.146;7.008;2022-10-18T15:37:51;7.30;;;4.23;;
12306;SDS011;6216;51.146;7.008;2022-10-18T15:40:36;12.80;;;5.00;;
12306;SDS011;6216;51.146;7.008;2022-10-18T15:46:02;8.43;;;3.80;;
12306;SDS011;6216;51.146;7.008;2022-10-18T15:48:33;11.53;;;4.10;;
12306;SDS011;6216;51.146;7.008;2022-10-18T15:51:05;9.27;;;3.90;;
12306;SDS011;6216;51.146;7.008;2022-10-18T15:53:35;11.73;;;4.00;;
12306;SDS011;6216;51.146;7.008;2022-10-18T15:56:24;8.80;;;4.23;;
12306;SDS011;6216;51.146;7.008;2022-10-18T15:59:03;14.00;;;4.70;;
12306;SDS011;6216;51.146;7.008;2022-10-18T16:01:34;11.90;;;4.53;;